Time;durP1;ratioP1;P1;durP2;ratioP2;P2;SDS_P1;SDS_P2;PMS_P1;PMS_P2;Temp;Humidity;BMP_temperature;BMP_pressure;BME280_temperature;BME280_humidity;BME280_pressure;Samples;Min_cycle;Max_cycle;Signal;HPM_P1;HPM_P2
2022/01/18 00:00:41;;;;;;;;;26.67;26.67;;;;;1.70;100.00;99592.09;5111977;28;11582;-71
2022/01/18 00:03:37;;;;;;;;;26.67;26.67;;;;;1.78;100.00;99580.53;5112880;27;8853;-71
2022/01/18 00:06:32;;;;;;;;;26.00;24.75;;;;;1.59;100.00;99584.09;5132194;27;12258;-72
2022/01/18 00:09:28;;;;;;;;;24.00;24.00;;;;;1.71;100.00;99589.06;5132306;27;11499;-72
2022/01/18 00:18:28;;;;;;;;;10.00;10.00;;;;;1.82;100.00;99595.16;5115682;28;8814;-72
2022/01/18 00:23:55;;;;;;;;;21.00;21.00;;;;;1.78;100.00;99592.22;5134554;27;11516;-71
2022/01/18 00:26:28;;;;;;;;;31.25;28.25;;;;;1.89;100.00;99592.84;5117303;27;11494;-71
2022/01/18 00:29:25;;;;;;;;;26.00;26.00;;;;;1.84;100.00;99588.31;5135721;27;11490;-72
2022/01/18 00:32:44;;;;;;;;;24.67;24.67;;;;;1.81;100.00;99586.16;5135814;27;11576;-71
2022/01/18 00:35:43;;;;;;;;;31.00;31.00;;;;;1.86;100.00;99586.09;5120522;27;11530;-71
2022/01/18 00:38:29;;;;;;;;;17.33;17.33;;;;;1.72;100.00;99576.25;5115117;28;11548;-72
2022/01/18 00:41:26;;;;;;;;;29.33;27.33;;;;;1.78;100.00;99577.78;5115039;28;12294;-71
2022/01/18 00:44:22;;;;;;;;;20.67;20.67;;;;;1.80;100.00;99578.28;5117663;27;11534;-71
2022/01/18 00:47:18;;;;;;;;;30.00;27.00;;;;;1.82;100.00;99585.06;5121981;27;11565;-71
2022/01/18 00:49:47;;;;;;;;;31.33;28.33;;;;;1.80;100.00;99579.09;5136470;27;12243;-72
2022/01/18 00:52:18;;;;;;;;;30.00;30.00;;;;;1.77;100.00;99576.19;5118662;27;11518;-72
2022/01/18 00:54:46;;;;;;;;;29.33;29.33;;;;;1.73;100.00;99559.59;5131514;27;11510;-72
2022/01/18 00:57:42;;;;;;;;;27.00;27.00;;;;;1.95;100.00;99567.13;5114707;28;11500;-72
2022/01/18 01:00:37;;;;;;;;;24.50;24.50;;;;;1.78;100.00;99559.53;5114614;28;11510;-72
2022/01/18 01:03:34;;;;;;;;;23.75;21.75;;;;;1.97;100.00;99555.91;5101010;28;11528;-71
2022/01/18 01:06:31;;;;;;;;;24.25;24.25;;;;;1.89;100.00;99566.38;5134023;27;11532;-71
2022/01/18 01:09:20;;;;;;;;;17.75;17.75;;;;;1.98;100.00;99569.22;5135861;27;11528;-72
2022/01/18 01:12:19;;;;;;;;;25.00;24.75;;;;;2.04;100.00;99568.03;5133987;27;11498;-72
2022/01/18 01:14:51;;;;;;;;;23.50;23.50;;;;;1.98;100.00;99568.41;5131206;27;11504;-71
2022/01/18 01:17:51;;;;;;;;;23.75;23.75;;;;;1.90;100.00;99570.72;5115962;27;11505;-71
2022/01/18 01:41:48;;;;;;;;;22.75;18.25;;;;;2.10;99.64;99593.28;5114768;28;11552;-72
2022/01/18 01:44:45;;;;;;;;;14.00;14.00;;;;;2.03;99.61;99585.50;5118511;27;11676;-72
2022/01/18 01:47:35;;;;;;;;;14.50;14.50;;;;;2.09;100.00;99595.22;5133737;27;11485;-71
2022/01/18 01:50:16;;;;;;;;;15.50;12.00;;;;;2.06;100.00;99576.72;5135560;27;11599;-72
2022/01/18 01:52:57;;;;;;;;;14.75;13.75;;;;;2.07;100.00;99588.44;5119067;27;11590;-72
2022/01/18 01:55:54;;;;;;;;;8.50;8.00;;;;;2.01;99.51;99595.91;5116401;27;11607;-72
2022/01/18 01:58:49;;;;;;;;;9.75;9.75;;;;;2.01;100.00;99598.63;5099820;28;11512;-72
2022/01/18 02:01:47;;;;;;;;;7.00;7.00;;;;;2.02;99.65;99588.53;5112635;28;11450;-72
2022/01/18 02:04:37;;;;;;;;;6.50;6.50;;;;;1.98;99.97;99603.88;5114435;27;11470;-72
2022/01/18 02:07:33;;;;;;;;;7.00;7.00;;;;;2.04;99.49;99611.66;5133637;27;11434;-72
2022/01/18 02:10:23;;;;;;;;;8.00;8.00;;;;;1.99;99.26;99614.47;5133930;27;11514;-72
2022/01/18 02:12:50;;;;;;;;;7.00;7.00;;;;;2.06;99.48;99620.34;5116899;27;11465;-72
2022/01/18 02:21:56;;;;;;;;;4.50;4.50;;;;;1.94;98.55;99622.75;5113730;28;11478;-72
2022/01/18 02:24:52;;;;;;;;;4.50;4.50;;;;;1.95;98.37;99619.72;5119336;27;11420;-71
2022/01/18 02:27:48;;;;;;;;;2.00;2.00;;;;;1.84;97.10;99628.38;5119878;27;12215;-72
2022/01/18 02:30:45;;;;;;;;;1.25;1.25;;;;;1.81;97.26;99635.25;5120416;27;11550;-72
2022/01/18 02:33:41;;;;;;;;;2.00;2.00;;;;;1.80;97.01;99635.53;5132427;27;11492;-72
2022/01/18 02:36:09;;;;;;;;;5.00;5.00;;;;;1.78;96.99;99635.84;5114268;28;11437;-72
2022/01/18 02:38:39;;;;;;;;;5.50;5.50;;;;;1.87;97.18;99627.78;5113721;28;11450;-72
2022/01/18 02:41:24;;;;;;;;;5.00;5.00;;;;;1.89;97.14;99642.72;5113362;28;11549;-72
2022/01/18 02:44:20;;;;;;;;;4.75;4.75;;;;;1.73;97.50;99635.13;5112595;28;11451;-72
2022/01/18 02:47:19;;;;;;;;;8.50;8.50;;;;;1.71;97.96;99631.88;5112826;28;11586;-72
2022/01/18 02:50:15;;;;;;;;;5.00;5.00;;;;;1.75;98.54;99641.06;5100620;28;11439;-72
2022/01/18 02:53:10;;;;;;;;;7.50;7.50;;;;;1.77;97.87;99644.34;5113065;27;11508;-72
2022/01/18 02:56:06;;;;;;;;;4.25;4.25;;;;;1.83;97.70;99645.84;5133172;27;11487;-72
2022/01/18 02:58:35;;;;;;;;;4.00;4.00;;;;;1.72;98.44;99637.03;5134414;27;11470;-72
2022/01/18 03:04:04;;;;;;;;;5.00;5.00;;;;;1.67;98.66;99642.56;5130742;27;11434;-72
2022/01/18 03:06:32;;;;;;;;;5.00;5.00;;;;;1.68;98.66;99644.97;5134080;27;11462;-72
2022/01/18 03:09:27;;;;;;;;;7.50;5.00;;;;;1.77;98.00;99647.88;5119304;27;11486;-72
2022/01/18 03:11:55;;;;;;;;;5.00;5.00;;;;;1.71;97.97;99648.25;5115656;27;11455;-72
2022/01/18 03:14:51;;;;;;;;;3.50;3.50;;;;;1.58;98.25;99653.31;5116290;28;11499;-72
2022/01/18 03:17:46;;;;;;;;;4.75;4.75;;;;;1.56;99.29;99660.19;5114351;28;11415;-72
2022/01/18 03:20:42;;;;;;;;;7.00;7.00;;;;;1.55;98.73;99661.28;5112309;28;11585;-72
2022/01/18 03:23:38;;;;;;;;;6.50;4.75;;;;;1.63;98.93;99666.06;5121443;27;11435;-73
2022/01/18 03:28:03;;;;;;;;;4.00;4.00;;;;;1.53;99.79;99666.22;5112246;28;11520;-72
2022/01/18 03:29:49;;;;;;;;;4.75;4.75;;;;;1.50;100.00;99664.09;5113010;28;12219;-72
2022/01/18 03:32:44;;;;;;;;;4.25;4.25;;;;;1.45;100.00;99661.44;5099118;28;11451;-72
2022/01/18 03:35:40;;;;;;;;;3.00;3.00;;;;;1.54;100.00;99681.47;5118148;27;11454;-72
2022/01/18 03:38:36;;;;;;;;;7.50;6.50;;;;;1.62;99.39;99680.81;5118983;27;11446;-71
2022/01/18 03:41:04;;;;;;;;;6.00;6.00;;;;;1.62;99.64;99675.34;5133628;27;11429;-72
2022/01/18 03:44:00;;;;;;;;;6.00;6.00;;;;;1.55;99.53;99689.34;5130394;27;11457;-71
2022/01/18 03:46:41;;;;;;;;;3.00;3.00;;;;;1.59;99.65;99676.75;5113042;28;11518;-72
2022/01/18 03:49:08;;;;;;;;;4.50;4.00;;;;;1.51;98.88;99679.31;5114540;28;11450;-72
2022/01/18 03:51:44;;;;;;;;;2.00;2.00;;;;;1.57;98.27;99678.97;5117076;28;11573;-72
2022/01/18 03:54:25;;;;;;;;;2.00;2.00;;;;;1.54;98.38;99692.38;5116005;27;11518;-72
2022/01/18 03:57:21;;;;;;;;;1.25;1.25;;;;;1.56;98.30;99687.44;5115999;28;11505;-71
2022/01/18 04:00:19;;;;;;;;;4.50;4.50;;;;;1.46;97.62;99685.69;5117588;27;11424;-71
2022/01/18 04:03:14;;;;;;;;;6.50;6.50;;;;;1.48;98.78;99697.09;5115200;28;11472;-72
2022/01/18 04:06:10;;;;;;;;;2.00;2.00;;;;;1.45;97.95;99703.09;5102835;28;11529;-72
2022/01/18 04:08:51;;;;;;;;;1.75;1.75;;;;;1.56;97.64;99698.34;5095748;28;11530;-72
2022/01/18 04:11:46;;;;;;;;;1.25;1.25;;;;;1.59;95.39;99704.00;5082182;28;11513;-71
2022/01/18 04:14:43;;;;;;;;;1.50;1.50;;;;;1.52;95.34;99706.28;5095219;28;11428;-71
2022/01/18 04:17:30;;;;;;;;;1.00;1.00;;;;;1.51;95.26;99695.69;5116352;28;11522;-72
2022/01/18 04:26:58;;;;;;;;;2.50;2.50;;;;;1.35;91.90;99695.09;5098679;28;11454;-72
2022/01/18 04:29:53;;;;;;;;;5.00;5.00;;;;;1.35;91.45;99709.50;5094835;28;11456;-72
2022/01/18 04:32:49;;;;;;;;;4.50;4.50;;;;;1.42;90.95;99719.25;5094903;28;11450;-71
2022/01/18 04:35:45;;;;;;;;;4.75;4.75;;;;;1.21;90.33;99719.50;5100301;28;11529;-72
2022/01/18 04:38:40;;;;;;;;;9.00;9.00;;;;;1.07;91.71;99718.59;5104277;28;11468;-72
2022/01/18 04:41:12;;;;;;;;;4.75;4.75;;;;;1.15;90.42;99736.19;5098054;28;11538;-72
2022/01/18 04:49:15;;;;;;;;;14.33;13.67;;;;;1.07;88.36;99734.94;5095541;28;11522;-72
2022/01/18 04:52:12;;;;;;;;;8.50;8.50;;;;;0.83;88.58;99738.47;5094278;28;11510;-71
2022/01/18 04:54:44;;;;;;;;;7.00;7.00;;;;;0.76;89.80;99738.00;5095467;28;11557;-71
2022/01/18 05:00:14;;;;;;;;;8.67;8.67;;;;;0.83;90.13;99743.91;5094914;28;11484;-71
2022/01/18 05:03:09;;;;;;;;;22.00;22.00;;;;;0.78;90.19;99743.19;5094416;28;11588;-71
2022/01/18 05:06:12;;;;;;;;;9.00;9.00;;;;;0.88;89.64;99731.38;5083498;28;8812;-71
2022/01/18 05:08:54;;;;;;;;;9.50;9.50;;;;;0.78;89.09;99751.34;5127204;27;11444;-71
2022/01/18 05:12:14;;;;;;;;;7.00;7.00;;;;;0.66;88.63;99754.44;5117410;27;11474;-72
2022/01/18 05:15:32;;;;;;;;;7.00;7.00;;;;;0.61;89.08;99756.41;5115119;28;12178;-71
2022/01/18 05:21:09;;;;;;;;;4.00;4.00;;;;;0.45;89.00;99766.63;5115982;28;11643;-71
2022/01/18 05:23:32;;;;;;;;;4.25;4.25;;;;;0.57;88.64;99767.06;5115394;28;11447;-71
2022/01/18 05:26:09;;;;;;;;;4.33;4.33;;;;;0.53;87.62;99771.44;5127293;27;11447;-72
2022/01/18 05:29:05;;;;;;;;;7.00;7.00;;;;;0.62;86.98;99772.47;5122132;27;11583;-72
2022/01/18 05:32:00;;;;;;;;;5.33;5.33;;;;;0.53;87.05;99776.88;5116287;27;11483;-71
2022/01/18 05:34:56;;;;;;;;;3.67;3.67;;;;;0.34;87.55;99790.41;5114797;28;12249;-72
2022/01/18 05:37:23;;;;;;;;;13.67;13.00;;;;;1.02;95.25;99795.72;5115084;28;12062;-69
2022/01/18 05:40:20;;;;;;;;;38.00;35.33;;;;;1.52;100.00;99792.66;5104281;28;8848;-73
2022/01/18 05:43:02;;;;;;;;;14.67;14.67;;;;;1.22;98.37;99796.56;5115090;28;8864;-72
2022/01/18 05:45:57;;;;;;;;;7.00;7.00;;;;;1.22;95.53;99791.94;5113779;28;11485;-71
2022/01/18 05:48:25;;;;;;;;;12.67;12.67;;;;;1.57;96.35;99798.88;5114972;28;11474;-71
2022/01/18 05:50:59;;;;;;;;;9.00;9.00;;;;;1.66;94.54;99794.38;5115000;28;11478;-72
2022/01/18 05:53:28;;;;;;;;;5.25;5.25;;;;;1.52;94.83;99800.84;5114694;28;11469;-72
2022/01/18 05:55:56;;;;;;;;;6.75;6.75;;;;;1.97;98.80;99801.31;5114605;28;11590;-72
2022/01/18 05:58:23;;;;;;;;;14.00;14.00;;;;;2.65;98.75;99804.31;5114846;28;11563;-72
2022/01/18 06:00:55;;;;;;;;;8.00;8.00;;;;;2.41;96.45;99800.91;5096975;28;11533;-69
2022/01/18 06:03:32;;;;;;;;;16.75;16.75;;;;;2.65;95.34;99822.59;5114531;28;11474;-70
2022/01/18 06:08:47;;;;;;;;;7.50;7.50;;;;;2.58;95.19;99824.91;5114259;28;11488;-69
2022/01/18 06:11:15;;;;;;;;;11.75;11.75;;;;;2.71;95.28;99837.81;5113997;28;12417;-70
2022/01/18 06:13:43;;;;;;;;;12.00;11.75;;;;;2.07;86.93;99845.63;5113872;28;11429;-70
2022/01/18 06:16:24;;;;;;;;;7.50;6.75;;;;;2.09;87.82;99845.34;5114505;28;11508;-70
2022/01/18 06:18:53;;;;;;;;;6.75;6.75;;;;;1.89;87.56;99840.97;5114491;28;11485;-70
2022/01/18 06:21:22;;;;;;;;;6.00;6.00;;;;;1.82;87.02;99845.97;5114211;28;11572;-70
2022/01/18 06:23:49;;;;;;;;;9.50;9.50;;;;;1.93;89.12;99839.28;5114047;28;11471;-71
2022/01/18 06:26:17;;;;;;;;;9.50;9.50;;;;;1.51;84.82;99849.09;5113907;28;11471;-70
2022/01/18 06:28:46;;;;;;;;;7.75;7.75;;;;;1.94;90.65;99846.34;5095741;28;11506;-70
2022/01/18 06:31:18;;;;;;;;;5.75;4.50;;;;;2.47;96.32;99848.84;5113769;28;11453;-70
2022/01/18 06:33:46;;;;;;;;;5.00;5.00;;;;;1.81;86.57;99855.25;5096156;28;11495;-70
2022/01/18 06:36:15;;;;;;;;;9.75;9.75;;;;;1.84;88.57;99857.38;5096130;28;11533;-70
2022/01/18 06:38:44;;;;;;;;;9.25;9.25;;;;;2.00;88.23;99863.47;5113915;28;11456;-69
2022/01/18 06:41:12;;;;;;;;;9.25;9.25;;;;;2.61;91.84;99859.81;5096048;28;11464;-70
2022/01/18 06:43:40;;;;;;;;;10.50;10.50;;;;;2.51;87.33;99855.31;5113960;28;11470;-70
2022/01/18 06:46:08;;;;;;;;;13.75;12.50;;;;;2.16;85.30;99860.22;5113895;28;11427;-70
2022/01/18 06:48:36;;;;;;;;;11.75;11.75;;;;;2.09;83.83;99864.44;5095942;28;11553;-70
2022/01/18 06:51:04;;;;;;;;;11.25;11.25;;;;;2.80;89.65;99863.31;5113705;28;11611;-70
2022/01/18 06:53:35;;;;;;;;;7.75;7.75;;;;;2.76;93.32;99870.47;5095735;28;11539;-71
2022/01/18 06:56:05;;;;;;;;;8.75;8.75;;;;;2.36;86.69;99870.00;5113771;28;11433;-71
2022/01/18 06:58:33;;;;;;;;;7.50;7.50;;;;;2.58;86.04;99877.59;5113772;28;12183;-70
2022/01/18 07:01:01;;;;;;;;;6.25;6.00;;;;;3.13;90.46;99885.13;5095861;28;11466;-70
2022/01/18 07:03:29;;;;;;;;;9.00;9.00;;;;;2.42;85.15;99895.31;5113700;28;11454;-70
2022/01/18 07:05:57;;;;;;;;;11.50;9.25;;;;;2.39;83.71;99899.44;5113458;28;11504;-72
2022/01/18 07:08:25;;;;;;;;;10.00;10.00;;;;;2.13;83.00;99900.91;5113475;28;11567;-70
2022/01/18 07:10:54;;;;;;;;;7.25;7.25;;;;;2.79;92.44;99897.19;5099368;27;11482;-71
2022/01/18 07:13:21;;;;;;;;;12.00;12.00;;;;;3.30;94.59;99899.03;5113563;28;11494;-71
2022/01/18 07:16:17;;;;;;;;;11.00;9.50;;;;;2.56;81.21;99889.91;5114316;27;11484;-72
2022/01/18 07:18:48;;;;;;;;;3.25;3.25;;;;;2.22;81.44;99907.31;5115699;27;11445;-72
2022/01/18 07:21:16;;;;;;;;;5.00;5.00;;;;;1.64;82.56;99899.34;5124978;27;11468;-72
2022/01/18 07:24:28;;;;;;;;;4.25;4.25;;;;;1.37;84.02;99908.91;5136545;27;11474;-74
2022/01/18 07:26:56;;;;;;;;;4.00;4.00;;;;;1.03;85.09;99919.88;5138371;27;11418;-73
2022/01/18 07:29:52;;;;;;;;;13.67;12.00;;;;;0.78;86.37;99923.63;5132157;27;11478;-73
2022/01/18 07:32:20;;;;;;;;;11.00;11.00;;;;;0.79;86.96;99919.00;5107655;28;11579;-73
2022/01/18 07:34:52;;;;;;;;;15.33;13.67;;;;;0.56;87.29;99920.53;5099294;28;11471;-74
2022/01/18 07:37:24;;;;;;;;;25.00;25.00;;;;;0.48;88.35;99924.69;5100113;28;8882;-74
2022/01/18 07:40:19;;;;;;;;;9.33;9.33;;;;;0.56;88.27;99928.69;5116507;28;8837;-73
2022/01/18 07:43:18;;;;;;;;;16.00;13.00;;;;;0.72;89.82;99934.84;5102653;28;8821;-73
2022/01/18 07:45:48;;;;;;;;;13.00;11.00;;;;;0.81;88.10;99944.84;5099261;28;8956;-73
2022/01/18 07:48:21;;;;;;;;;14.00;13.00;;;;;0.75;87.70;99943.25;5117273;28;8849;-73
2022/01/18 07:50:51;;;;;;;;;11.00;11.00;;;;;0.68;87.53;99931.03;5099412;28;8838;-72
2022/01/18 07:53:20;;;;;;;;;12.67;12.67;;;;;0.72;87.53;99951.97;5099420;28;8829;-72
2022/01/18 07:55:49;;;;;;;;;11.33;11.33;;;;;0.69;86.32;99955.28;5098812;28;11496;-76
2022/01/18 07:58:18;;;;;;;;;13.00;13.00;;;;;0.79;86.03;99944.31;5117043;28;8826;-73
2022/01/18 08:00:47;;;;;;;;;10.00;10.00;;;;;0.77;87.14;99954.69;5116939;28;8833;-73
2022/01/18 08:03:15;;;;;;;;;19.00;15.67;;;;;0.85;87.52;99961.44;5116943;28;8817;-73
2022/01/18 08:06:11;;;;;;;;;8.67;8.67;;;;;0.93;86.98;99968.16;5110087;27;8835;-73
2022/01/18 08:08:39;;;;;;;;;8.67;8.67;;;;;1.04;86.53;99959.63;5125727;27;8858;-73
2022/01/18 08:11:35;;;;;;;;;10.00;8.00;;;;;0.99;88.15;99975.19;5123038;27;11485;-73
2022/01/18 08:14:03;;;;;;;;;8.00;8.00;;;;;0.86;87.81;99981.28;5112035;27;8848;-73
2022/01/18 08:19:03;;;;;;;;;2.00;2.00;;;;;0.66;85.92;99991.22;5126665;27;11520;-73
2022/01/18 08:21:38;;;;;;;;;3.00;3.00;;;;;0.69;87.39;99998.81;5121304;27;11459;-73
2022/01/18 08:24:11;;;;;;;;;1.00;1.00;;;;;0.37;84.61;99996.53;5123286;27;11447;-73
2022/01/18 08:27:07;;;;;;;;;3.33;3.33;;;;;0.37;84.74;100006.59;5125690;27;11452;-73
2022/01/18 08:30:06;;;;;;;;;2.33;2.33;;;;;0.33;84.54;100008.28;5127802;27;11449;-73
2022/01/18 08:33:01;;;;;;;;;3.67;3.67;;;;;0.20;83.97;100005.06;5108816;27;11667;-73
2022/01/18 08:35:31;;;;;;;;;1.00;1.00;;;;;0.07;83.97;100002.94;5104503;27;11545;-73
2022/01/18 08:37:59;;;;;;;;;5.67;5.67;;;;;0.10;84.55;100018.72;5120635;27;12237;-73
2022/01/18 08:40:27;;;;;;;;;0.50;0.50;;;;;0.27;83.29;100024.59;5127392;27;11479;-72
2022/01/18 08:42:55;;;;;;;;;4.00;4.00;;;;;0.14;82.42;100032.53;5103976;27;11462;-73
2022/01/18 08:45:23;;;;;;;;;1.33;1.33;;;;;0.33;83.32;100022.69;5123385;27;12317;-73
2022/01/18 08:47:51;;;;;;;;;4.00;4.00;;;;;0.42;82.26;100031.88;5105192;27;11534;-73
2022/01/18 08:50:41;;;;;;;;;2.33;2.33;;;;;0.74;81.51;100028.72;5120415;27;12292;-74
2022/01/18 08:53:09;;;;;;;;;4.00;4.00;;;;;0.63;81.05;100026.34;5128784;27;11441;-74
2022/01/18 08:55:37;;;;;;;;;1.75;1.75;;;;;0.54;79.98;100016.06;5129295;27;11508;-74
2022/01/18 08:58:06;;;;;;;;;2.00;2.00;;;;;0.59;80.75;100022.56;5118466;27;11575;-73
2022/01/18 09:01:02;;;;;;;;;2.50;2.50;;;;;0.67;80.23;100022.75;5115802;27;11474;-73
2022/01/18 09:03:45;;;;;;;;;2.25;2.25;;;;;0.72;82.44;100017.31;5126540;27;11469;-73
2022/01/18 09:06:14;;;;;;;;;2.33;2.33;;;;;0.56;81.68;100040.25;5118704;27;11440;-74
2022/01/18 09:08:43;;;;;;;;;0.50;0.50;;;;;0.43;81.76;100032.69;5118220;27;11435;-74
2022/01/18 09:11:26;;;;;;;;;0.67;0.67;;;;;0.34;82.72;100040.63;5119785;27;11425;-73
2022/01/18 09:14:22;;;;;;;;;1.00;1.00;;;;;0.31;83.72;100045.81;5114261;27;12243;-73
2022/01/18 09:17:18;;;;;;;;;0.67;0.67;;;;;0.58;83.39;100046.22;5114674;28;11438;-73
2022/01/18 09:20:14;;;;;;;;;1.00;1.00;;;;;0.47;83.89;100063.72;5117542;27;11429;-73
2022/01/18 09:23:10;;;;;;;;;1.00;1.00;;;;;0.14;85.00;100063.25;5134377;27;11453;-74
2022/01/18 09:25:38;;;;;;;;;1.00;1.00;;;;;-0.15;84.43;100075.88;5122247;27;11569;-74
2022/01/18 09:28:34;;;;;;;;;3.33;3.33;;;;;-0.35;84.65;100066.66;5123315;27;11451;-74
2022/01/18 09:31:29;;;;;;;;;1.00;1.00;;;;;-0.27;85.40;100081.59;5125412;27;11579;-73
2022/01/18 09:33:57;;;;;;;;;3.00;3.00;;;;;-0.30;86.17;100079.44;5123278;27;8857;-72
2022/01/18 09:36:53;;;;;;;;;1.00;1.00;;;;;-0.32;85.30;100082.38;5134306;27;8871;-73
2022/01/18 09:39:42;;;;;;;;;4.00;4.00;;;;;-0.24;86.04;100101.94;5128871;27;8851;-73
2022/01/18 09:42:11;;;;;;;;;1.00;1.00;;;;;-0.07;84.29;100105.22;5129988;27;8872;-73
2022/01/18 09:44:40;;;;;;;;;3.00;3.00;;;;;-0.20;83.02;100103.06;5098098;28;8849;-75
2022/01/18 09:47:37;;;;;;;;;4.67;4.67;;;;;-0.13;82.37;100122.63;5105194;27;8839;-73
2022/01/18 09:50:08;;;;;;;;;4.67;4.67;;;;;-0.19;82.15;100123.69;5117647;27;11474;-73
2022/01/18 09:53:07;;;;;;;;;4.00;4.00;;;;;-0.13;81.11;100147.88;5100894;27;11457;-72
2022/01/18 09:56:03;;;;;;;;;3.00;3.00;;;;;-0.01;79.31;100142.16;5134333;27;8978;-73
2022/01/18 09:58:59;;;;;;;;;6.67;6.67;;;;;0.21;79.15;100145.38;5115604;27;11476;-72
2022/01/18 10:01:40;;;;;;;;;7.00;7.00;;;;;-0.01;79.96;100153.03;5098687;28;9622;-73
2022/01/18 10:04:21;;;;;;;;;3.67;3.67;;;;;-0.34;80.23;100140.81;5097446;28;8837;-72
2022/01/18 10:07:17;;;;;;;;;5.33;5.33;;;;;-0.43;82.21;100156.84;5120868;27;11455;-73
2022/01/18 10:10:00;;;;;;;;;3.33;3.33;;;;;-0.65;82.86;100154.38;5116779;27;8833;-73
2022/01/18 10:12:42;;;;;;;;;4.00;4.00;;;;;-0.77;84.90;100158.44;5121018;27;8883;-73
2022/01/18 10:15:17;;;;;;;;;4.67;4.67;;;;;-0.75;86.64;100151.66;5130094;27;9552;-74
2022/01/18 10:18:12;;;;;;;;;1.00;1.00;;;;;-0.55;87.36;100164.44;5120217;27;8855;-72
2022/01/18 10:20:52;;;;;;;;;0.33;0.33;;;;;-0.57;88.28;100162.00;5135064;27;8951;-72
2022/01/18 10:23:24;;;;;;;;;4.67;4.67;;;;;-0.68;87.98;100178.56;5116209;27;8870;-73
2022/01/18 10:26:19;;;;;;;;;1.67;1.67;;;;;-0.86;86.38;100177.97;5118429;27;9584;-73
2022/01/18 10:29:16;;;;;;;;;1.00;1.00;;;;;-0.97;87.48;100197.22;5119974;27;8950;-73
2022/01/18 10:32:30;;;;;;;;;1.00;1.00;;;;;-0.89;85.47;100200.22;5132884;27;8878;-73
2022/01/18 10:35:26;;;;;;;;;5.33;5.33;;;;;-1.28;85.60;100197.09;5114143;27;8856;-74
2022/01/18 10:38:22;;;;;;;;;1.00;1.00;;;;;-1.21;85.50;100216.66;5114192;27;8862;-73
2022/01/18 10:41:33;;;;;;;;;4.67;4.00;;;;;-1.00;86.07;100214.81;5113021;28;8837;-73
2022/01/18 10:44:04;;;;;;;;;0.00;0.00;;;;;-0.90;85.98;100219.50;5112031;27;8844;-73
2022/01/18 10:46:57;;;;;;;;;4.00;4.00;;;;;-1.13;84.76;100248.72;5117711;27;8859;-74
2022/01/18 10:49:30;;;;;;;;;4.00;4.00;;;;;-1.06;85.24;100236.81;5115960;27;8912;-73
2022/01/18 10:52:28;;;;;;;;;4.67;4.67;;;;;-0.94;86.04;100234.69;5119614;27;8862;-72
2022/01/18 10:55:24;;;;;;;;;1.67;1.67;;;;;-1.14;86.05;100241.66;5099897;28;8834;-72
2022/01/18 10:58:22;;;;;;;;;1.00;1.00;;;;;-1.29;86.54;100251.63;5101048;28;8830;-72
2022/01/18 11:01:21;;;;;;;;;1.00;1.00;;;;;-1.16;86.96;100256.56;5114025;28;8833;-73
2022/01/18 11:04:17;;;;;;;;;0.00;0.00;;;;;-1.12;86.99;100253.06;5112639;28;9664;-72
2022/01/18 11:07:05;;;;;;;;;3.00;3.00;;;;;-0.99;86.52;100253.69;5112360;28;8952;-72
2022/01/18 11:09:35;;;;;;;;;3.67;3.67;;;;;-1.04;84.23;100270.75;5113713;28;8890;-72
2022/01/18 11:12:05;;;;;;;;;3.00;3.00;;;;;-1.00;82.93;100262.88;5095888;28;8949;-73
2022/01/18 11:14:51;;;;;;;;;2.33;2.33;;;;;-0.98;82.26;100275.13;5112411;28;8841;-73
2022/01/18 11:17:24;;;;;;;;;3.67;3.67;;;;;-0.82;82.44;100275.19;5113652;28;8864;-72
2022/01/18 11:19:55;;;;;;;;;3.67;3.67;;;;;-0.88;81.98;100266.19;5095488;28;8849;-71
2022/01/18 11:22:25;;;;;;;;;0.00;0.00;;;;;-0.97;80.61;100292.22;5113638;28;9050;-74
2022/01/18 11:24:59;;;;;;;;;4.00;4.00;;;;;-0.97;81.35;100301.19;5112225;28;10058;-72
2022/01/18 11:27:29;;;;;;;;;3.33;3.33;;;;;-1.00;81.86;100290.84;5078854;28;8861;-72
2022/01/18 11:29:57;;;;;;;;;2.33;2.33;;;;;-1.07;81.48;100295.72;5113510;28;8825;-72
2022/01/18 11:32:28;;;;;;;;;0.00;0.00;;;;;-0.91;81.07;100321.03;5095397;28;8857;-72
2022/01/18 11:35:08;;;;;;;;;1.00;1.00;;;;;-0.87;79.87;100317.50;5095443;28;11428;-73
2022/01/18 11:37:58;;;;;;;;;0.67;0.67;;;;;-0.95;79.03;100337.00;5095561;28;9598;-73
2022/01/18 11:40:26;;;;;;;;;1.00;1.00;;;;;-1.02;79.40;100341.84;5113634;28;8849;-72
2022/01/18 11:42:57;;;;;;;;;1.00;1.00;;;;;-1.14;78.99;100343.97;5113373;28;8876;-72
2022/01/18 11:45:25;;;;;;;;;1.67;1.67;;;;;-1.32;78.11;100366.06;5116585;27;8931;-73
2022/01/18 11:48:23;;;;;;;;;1.67;1.67;;;;;-1.37;77.43;100368.78;5132827;27;8863;-73
2022/01/18 11:51:16;;;;;;;;;1.67;1.67;;;;;-1.26;78.68;100367.75;5130919;27;8853;-73
2022/01/18 11:54:30;;;;;;;;;3.00;3.00;;;;;-1.19;78.66;100368.34;5119577;27;8870;-72
2022/01/18 11:57:01;;;;;;;;;3.00;3.00;;;;;-1.40;79.71;100365.47;5114071;28;8839;-72
2022/01/18 12:00:07;;;;;;;;;3.33;3.33;;;;;-1.08;79.93;100386.31;5099501;28;8829;-72
2022/01/18 12:02:43;;;;;;;;;0.00;0.00;;;;;-1.06;78.10;100392.34;5131939;27;8839;-71
2022/01/18 12:05:19;;;;;;;;;3.00;3.00;;;;;-0.96;78.67;100395.09;5107148;28;8845;-72
2022/01/18 12:08:05;;;;;;;;;3.00;3.00;;;;;-1.02;77.77;100407.00;5113313;28;8858;-72
2022/01/18 12:11:10;;;;;;;;;3.00;3.00;;;;;-0.83;78.80;100415.56;5114327;28;8864;-72
2022/01/18 12:13:44;;;;;;;;;4.00;4.00;;;;;-0.74;78.35;100413.97;5099011;28;8910;-71
2022/01/18 12:16:49;;;;;;;;;1.67;1.67;;;;;-0.79;75.91;100419.38;5102926;27;8955;-69
2022/01/18 12:19:46;;;;;;;;;1.00;1.00;;;;;-0.95;77.72;100426.59;5131008;27;8816;-70
2022/01/18 12:23:05;;;;;;;;;1.00;1.00;;;;;-0.95;76.59;100429.31;5102325;28;8860;-70
2022/01/18 12:26:31;;;;;;;;;1.00;1.00;;;;;-1.05;76.23;100444.72;5115657;27;8829;-73
2022/01/18 12:34:38;;;;;;;;;3.67;3.67;;;;;-0.82;76.05;100457.09;5119917;27;9552;-73
2022/01/18 12:37:35;;;;;;;;;5.33;5.33;;;;;-0.73;75.34;100458.25;5133857;27;8842;-73
2022/01/18 12:40:08;;;;;;;;;3.00;3.00;;;;;-0.81;73.43;100466.88;5118650;27;8847;-73
2022/01/18 12:45:36;;;;;;;;;4.00;4.00;;;;;-1.00;72.94;100474.59;5125352;27;8925;-72
2022/01/18 12:48:05;;;;;;;;;1.00;1.00;;;;;-0.98;73.34;100484.13;5136664;27;8854;-73
2022/01/18 12:50:51;;;;;;;;;0.00;0.00;;;;;-1.28;73.22;100481.16;5104894;28;8891;-72
2022/01/18 12:53:23;;;;;;;;;3.00;3.00;;;;;-1.28;74.37;100490.13;5098001;28;8864;-73
2022/01/18 12:56:19;;;;;;;;;6.67;6.67;;;;;-0.93;74.15;100495.03;5133104;27;8937;-74
2022/01/18 12:59:14;;;;;;;;;4.67;4.67;;;;;-0.64;74.24;100500.13;5135582;27;8823;-74
2022/01/18 13:01:42;;;;;;;;;5.33;5.33;;;;;-0.64;73.44;100513.72;5135710;27;8858;-74
2022/01/18 13:04:10;;;;;;;;;6.00;6.00;;;;;-0.55;73.62;100525.72;5118251;27;8851;-74
2022/01/18 13:06:38;;;;;;;;;4.00;4.00;;;;;-0.74;71.99;100529.94;5136613;27;8812;-75
2022/01/18 13:09:05;;;;;;;;;1.67;1.67;;;;;-1.03;72.06;100522.09;5127880;27;8835;-74
2022/01/18 13:11:38;;;;;;;;;3.00;3.00;;;;;-1.07;73.53;100536.41;5134622;27;11452;-74
2022/01/18 13:14:51;;;;;;;;;4.67;4.67;;;;;-0.86;73.14;100530.91;5123503;27;8868;-74
2022/01/18 13:24:02;;;;;;;;;4.00;4.00;;;;;-0.82;72.46;100552.13;5135159;27;8941;-74
2022/01/18 13:27:11;;;;;;;;;4.00;4.00;;;;;-0.93;72.29;100567.50;5101138;28;8837;-74
2022/01/18 13:29:39;;;;;;;;;7.00;3.33;;;;;-0.82;71.97;100571.16;5115947;28;8853;-74
2022/01/18 13:32:36;;;;;;;;;1.00;1.00;;;;;-1.17;72.34;100581.38;5101986;27;8911;-74
2022/01/18 13:35:32;;;;;;;;;4.00;4.00;;;;;-1.05;72.45;100577.72;5117444;27;8829;-73
2022/01/18 13:38:31;;;;;;;;;4.00;4.00;;;;;-1.13;72.98;100593.38;5125943;27;8829;-74
2022/01/18 13:41:27;;;;;;;;;6.33;4.67;;;;;-1.17;73.17;100596.84;5100852;28;8833;-74
2022/01/18 13:44:08;;;;;;;;;3.00;3.00;;;;;-0.85;72.77;100602.31;5118119;27;8853;-74
2022/01/18 13:46:36;;;;;;;;;4.67;4.00;;;;;-0.84;72.61;100604.00;5109038;28;8933;-74
2022/01/18 13:49:23;;;;;;;;;4.33;4.33;;;;;-1.06;70.78;100605.94;5098503;28;8918;-74
2022/01/18 13:52:08;;;;;;;;;1.67;1.67;;;;;-1.13;71.50;100608.84;5120886;27;8948;-73
2022/01/18 13:54:54;;;;;;;;;3.67;3.67;;;;;-1.01;72.45;100620.38;5130899;27;9622;-73
2022/01/18 13:57:23;;;;;;;;;3.00;3.00;;;;;-1.13;71.90;100617.81;5135698;27;8823;-73
2022/01/18 14:00:22;;;;;;;;;3.00;3.00;;;;;-1.24;72.60;100632.31;5121519;27;8835;-73
2022/01/18 14:02:51;;;;;;;;;3.33;3.33;;;;;-1.24;72.84;100629.63;5135498;27;8839;-73
2022/01/18 14:05:21;;;;;;;;;3.00;3.00;;;;;-0.99;72.89;100628.28;5117212;27;8855;-73
2022/01/18 14:07:59;;;;;;;;;5.33;4.00;;;;;-1.14;72.16;100640.59;5132112;27;8940;-73